»·PEaware :: N235B KSNA-KSNA

N235B :: KSNA-KSNA

FLIGHT INFORMATION

Flight Status: Arrived
Operator: Privately registered:
United States
More flights under this callsign
Pilot: Jason D. (29273)
Aircraft: CESSNA 172 SKYHAWK
(C172)
More flights by this aircraft type
Origin: KSNA John Wayne-Orange Co
United States
Destination: KSNA John Wayne-Orange Co
United States
More flights between these airports :: More routes between these airports
Route: SLI
File this flight plan on PilotEdge
Remarks: ILS 20
Altitude:
(Current/Filed)
3,000ft
Speed:
(Current/Filed)
110kts
Departed: 12-Aug-20 05:40 PM
Arrived: 12-Aug-20 06:05 PM
Distance/Time
Traveled:
0nm/0:25
Distance/Time
To Go:
Arrived

Flight Plot

Page will automatically refresh every two minutes.


Map Options




Map Legend


Flown Route
Filed Route
Departure Airport
Arrival Airport
Navaid (VOR, NDB)
Fix

Horizontal Profiles

Position Reports

Time Latitude Longitude Heading Altitude Ground
Speed
12-Aug-20 17:26 33.676205 -117.871104 212 60ft 0kts
12-Aug-20 17:27 33.676205 -117.871104 212 60ft 0kts
12-Aug-20 17:28 33.676205 -117.871104 212 60ft 0kts
12-Aug-20 17:29 33.676205 -117.871104 212 60ft 0kts
12-Aug-20 17:30 33.676205 -117.871104 212 60ft 0kts
12-Aug-20 17:31 33.676205 -117.871104 212 60ft 0kts
12-Aug-20 17:32 33.676205 -117.871104 212 60ft 0kts
12-Aug-20 17:33 33.676205 -117.871104 212 60ft 0kts
12-Aug-20 17:34 33.676193 -117.871112 193 60ft 0kts
12-Aug-20 17:36 33.678150 -117.868790 29 60ft 37kts
12-Aug-20 17:37 33.681575 -117.866662 180 60ft 8kts
12-Aug-20 17:38 33.681264 -117.866488 124 60ft 0kts
12-Aug-20 17:39 33.680467 -117.865926 207 60ft 14kts
12-Aug-20 17:40 33.669022 -117.878282 233 499ft 57kts
12-Aug-20 17:41 33.659672 -117.891739 231 897ft 54kts
12-Aug-20 17:42 33.647359 -117.910524 231 1137ft 73kts
12-Aug-20 17:43 33.634619 -117.929988 231 1551ft 74kts
12-Aug-20 17:44 33.635918 -117.949140 350 1949ft 84kts
12-Aug-20 17:45 33.659161 -117.942505 11 2331ft 87kts
12-Aug-20 17:46 33.682477 -117.934969 11 2692ft 87kts
12-Aug-20 17:47 33.705147 -117.923857 21 3006ft 94kts
12-Aug-20 17:48 33.731390 -117.909873 21 3010ft 110kts
12-Aug-20 17:49 33.759154 -117.895172 21 3009ft 111kts
12-Aug-20 17:50 33.787217 -117.880469 21 3006ft 111kts
12-Aug-20 17:51 33.817637 -117.864941 21 3005ft 130kts
12-Aug-20 17:52 33.852279 -117.847712 21 3000ft 137kts
12-Aug-20 17:52 33.881820 -117.833280 21 2996ft 138kts
12-Aug-20 17:54 33.916719 -117.805014 94 2986ft 134kts
12-Aug-20 17:54 33.907729 -117.769709 111 2992ft 133kts
12-Aug-20 17:55 33.887034 -117.738721 178 2993ft 126kts
12-Aug-20 17:57 33.849724 -117.752209 207 2996ft 124kts
12-Aug-20 17:57 33.825963 -117.766510 207 2949ft 104kts
12-Aug-20 17:58 33.800876 -117.781500 207 2784ft 95kts
12-Aug-20 17:59 33.777557 -117.796719 214 2688ft 95kts
12-Aug-20 18:00 33.753915 -117.812276 207 2492ft 103kts
12-Aug-20 18:01 33.727705 -117.830510 215 1859ft 110kts
12-Aug-20 18:02 33.702881 -117.850873 210 608ft 107kts
12-Aug-20 18:03 33.680412 -117.865759 209 71ft 78kts
12-Aug-20 18:04 33.674261 -117.871452 266 60ft 6kts
12-Aug-20 18:05 33.676632 -117.870383 66 60ft 0kts
12-Aug-20 18:06 33.676632 -117.870383 66 60ft 0kts
12-Aug-20 18:07 33.676632 -117.870383 66 60ft 0kts
12-Aug-20 18:08 33.676632 -117.870383 66 60ft 0kts
12-Aug-20 18:09 33.676632 -117.870383 66 60ft 0kts
12-Aug-20 18:10 33.676632 -117.870383 66 60ft 0kts
12-Aug-20 18:11 33.676632 -117.870383 66 60ft 0kts
12-Aug-20 18:12 33.676632 -117.870383 66 60ft 0kts
12-Aug-20 18:13 33.676632 -117.870383 66 60ft 0kts
12-Aug-20 18:14 33.676632 -117.870383 66 60ft 0kts
12-Aug-20 18:15 33.676632 -117.870383 66 60ft 0kts
12-Aug-20 18:16 33.676632 -117.870383 66 60ft 0kts
12-Aug-20 18:17 33.676632 -117.870383 66 60ft 0kts

Navigation Log

Ident Type
Flight plan parsing failed, navigation log unavailable